createdAt,value
2023-04-08T00:01:24.874Z,86.14
2023-04-08T00:03:54.310Z,89.46
2023-04-08T00:06:22.268Z,89.28
2023-04-08T00:08:50.654Z,89.77
2023-04-08T00:11:18.720Z,87.76
2023-04-08T00:13:46.594Z,86.32
2023-04-08T00:16:14.545Z,87.37
2023-04-08T00:18:42.736Z,85.99
2023-04-08T00:21:12.012Z,86.20
2023-04-08T00:23:39.885Z,86.13
2023-04-08T00:26:07.739Z,86.50
2023-04-08T00:28:35.652Z,86.77
2023-04-08T00:31:04.020Z,86.50
2023-04-08T00:33:32.558Z,87.27
2023-04-08T00:36:00.492Z,88.48
2023-04-08T00:38:29.982Z,86.81
2023-04-08T00:40:58.416Z,87.42
2023-04-08T00:43:26.322Z,88.07
2023-04-08T00:45:54.274Z,88.45
2023-04-08T00:48:22.243Z,87.66
2023-04-08T00:50:50.110Z,87.43
2023-04-08T00:53:20.381Z,90.60
2023-04-08T00:55:49.625Z,89.58
2023-04-08T00:58:19.234Z,90.06
2023-04-08T01:00:53.736Z,91.07
2023-04-08T01:03:31.619Z,89.50
2023-04-08T01:06:08.092Z,89.47
2023-04-08T01:08:39.273Z,88.72
2023-04-08T01:11:12.530Z,88.27
2023-04-08T01:13:43.033Z,89.44
2023-04-08T01:16:13.973Z,89.48
2023-04-08T01:18:44.461Z,89.63
2023-04-08T01:21:13.813Z,87.62
2023-04-08T01:23:52.828Z,88.05
2023-04-08T01:26:25.677Z,88.59
2023-04-08T01:28:56.129Z,89.02
2023-04-08T01:31:26.624Z,88.36
2023-04-08T01:33:56.022Z,87.19
2023-04-08T01:36:25.475Z,87.32
2023-04-08T01:38:53.647Z,86.94
2023-04-08T01:41:23.589Z,86.98
2023-04-08T01:43:53.043Z,87.72
2023-04-08T01:46:22.858Z,88.26
2023-04-08T01:48:52.039Z,88.42
2023-04-08T01:51:21.021Z,86.01
2023-04-08T01:53:48.935Z,86.84
2023-04-08T01:56:17.680Z,87.22
2023-04-08T01:58:52.795Z,87.87
2023-04-08T02:01:23.971Z,88.07
2023-04-08T02:03:53.208Z,87.56
2023-04-08T02:06:21.200Z,87.83
2023-04-08T02:08:49.301Z,87.78
2023-04-08T02:11:17.289Z,88.20
2023-04-08T02:13:45.187Z,87.64
2023-04-08T02:16:19.500Z,87.58
2023-04-08T02:18:55.663Z,89.57
2023-04-08T02:21:27.945Z,88.36
2023-04-08T02:23:56.832Z,88.94
2023-04-08T02:26:26.229Z,89.02
2023-04-08T02:28:57.322Z,87.92
2023-04-08T02:31:28.029Z,90.00
2023-04-08T02:33:57.055Z,90.02
2023-04-08T02:36:26.034Z,89.98
2023-04-08T02:38:53.964Z,89.97
2023-04-08T02:41:22.234Z,88.67
2023-04-08T02:43:55.535Z,88.83
2023-04-08T02:46:23.595Z,88.18
2023-04-08T02:48:52.955Z,87.46
2023-04-08T02:51:21.133Z,87.05
2023-04-08T02:53:49.057Z,86.93
2023-04-08T02:56:16.976Z,87.24
2023-04-08T02:58:44.894Z,86.85
2023-04-08T03:01:12.814Z,86.32
2023-04-08T03:03:41.111Z,89.00
2023-04-08T03:06:10.499Z,88.18
2023-04-08T03:08:38.416Z,87.08
2023-04-08T03:11:06.386Z,87.20
2023-04-08T03:13:34.266Z,87.17
2023-04-08T03:16:02.273Z,86.95
2023-04-08T03:18:30.177Z,88.42
2023-04-08T03:20:58.164Z,88.33
2023-04-08T03:23:27.410Z,88.20
2023-04-08T03:25:55.305Z,88.17
2023-04-08T03:28:23.256Z,87.82
2023-04-08T03:30:51.382Z,87.91
2023-04-08T03:33:19.422Z,88.25
2023-04-08T03:35:47.690Z,87.89
2023-04-08T03:38:15.770Z,88.13
2023-04-08T03:40:45.025Z,86.91
2023-04-08T03:43:13.030Z,86.60
2023-04-08T03:45:40.966Z,86.02
2023-04-08T03:48:09.144Z,84.74
2023-04-08T03:50:37.038Z,85.20
2023-04-08T03:53:04.906Z,84.83
2023-04-08T03:55:32.789Z,85.25
2023-04-08T03:58:02.029Z,85.83
2023-04-08T04:00:30.041Z,86.76
2023-04-08T04:02:58.038Z,87.97
2023-04-08T04:05:25.989Z,88.02
2023-04-08T04:07:53.893Z,87.03
2023-04-08T04:10:21.774Z,85.49
2023-04-08T04:12:51.113Z,85.23
2023-04-08T04:15:20.417Z,84.69
2023-04-08T04:17:50.396Z,85.08
2023-04-08T04:20:18.475Z,84.20
2023-04-08T04:22:46.460Z,85.46
2023-04-08T04:25:14.396Z,85.06
2023-04-08T04:27:42.263Z,85.10
2023-04-08T04:30:10.671Z,85.00
2023-04-08T04:32:40.166Z,84.52
2023-04-08T04:35:08.618Z,83.52
2023-04-08T04:37:36.528Z,84.08
2023-04-08T04:40:05.000Z,84.98
2023-04-08T04:42:33.322Z,84.94
2023-04-08T04:45:01.256Z,84.48
2023-04-08T04:47:29.183Z,84.09
2023-04-08T04:49:58.484Z,83.76
2023-04-08T04:52:26.655Z,83.36
2023-04-08T04:54:54.730Z,83.72
2023-04-08T04:57:22.620Z,82.90
2023-04-08T04:59:50.522Z,83.04
2023-04-08T05:02:18.561Z,82.34
2023-04-08T05:04:47.067Z,83.65
2023-04-08T05:07:16.400Z,84.42
2023-04-08T05:09:44.279Z,85.64
2023-04-08T05:12:12.635Z,84.83
2023-04-08T05:14:42.225Z,84.95
2023-04-08T05:17:10.189Z,83.56
2023-04-08T05:19:38.083Z,84.62
2023-04-08T05:22:06.086Z,84.44
2023-04-08T05:24:36.448Z,85.32
2023-04-08T05:27:04.537Z,84.57
2023-04-08T05:29:32.426Z,85.53
2023-04-08T05:32:00.504Z,85.71
2023-04-08T05:34:28.427Z,84.73
2023-04-08T05:36:56.345Z,84.04
2023-04-08T05:39:24.222Z,84.97
2023-04-08T05:41:53.733Z,84.09
2023-04-08T05:44:21.595Z,83.64
2023-04-08T05:46:49.576Z,82.29
2023-04-08T05:49:18.271Z,81.84
2023-04-08T05:51:46.264Z,80.87
2023-04-08T05:54:14.162Z,79.81
2023-04-08T05:56:42.095Z,80.54
2023-04-08T05:59:11.329Z,79.32
2023-04-08T06:01:39.312Z,78.95
2023-04-08T06:04:07.353Z,76.46
2023-04-08T06:06:35.525Z,74.18
2023-04-08T06:09:03.427Z,73.61
2023-04-08T06:11:31.306Z,75.83
2023-04-08T06:13:59.266Z,72.81
2023-04-08T06:16:28.720Z,73.63
2023-04-08T06:18:56.743Z,71.22
2023-04-08T06:21:24.663Z,72.05
2023-04-08T06:23:52.684Z,73.33
2023-04-08T06:26:20.570Z,73.62
2023-04-08T06:28:48.728Z,72.65
2023-04-08T06:31:16.840Z,71.11
2023-04-08T06:33:46.135Z,72.15
2023-04-08T06:36:14.020Z,71.15
2023-04-08T06:38:41.917Z,70.17
2023-04-08T06:41:10.133Z,70.14
2023-04-08T06:43:38.547Z,70.11
2023-04-08T06:46:07.089Z,69.17
2023-04-08T06:48:35.132Z,70.60
2023-04-08T06:51:04.614Z,69.03
2023-04-08T06:53:33.451Z,70.65
2023-04-08T06:56:01.597Z,68.48
2023-04-08T06:58:30.034Z,70.27
2023-04-08T07:00:58.016Z,70.63
2023-04-08T07:03:26.719Z,69.92
2023-04-08T07:05:55.589Z,68.78
2023-04-08T07:08:24.939Z,69.75
2023-04-08T07:10:53.933Z,70.29
2023-04-08T07:13:21.886Z,70.02
2023-04-08T07:15:50.031Z,69.54
2023-04-08T07:18:18.051Z,70.15
2023-04-08T07:20:46.573Z,67.16
2023-04-08T07:23:14.542Z,69.43
2023-04-08T07:25:43.815Z,69.00
2023-04-08T07:28:11.809Z,68.79
2023-04-08T07:30:39.784Z,70.18
2023-04-08T07:33:07.853Z,68.71
2023-04-08T07:35:35.923Z,67.87
2023-04-08T07:38:03.874Z,67.28
2023-04-08T07:40:31.834Z,68.82
2023-04-08T07:43:01.128Z,67.18
2023-04-08T07:45:29.102Z,64.63
2023-04-08T07:47:57.303Z,68.20
2023-04-08T07:50:25.264Z,69.58
2023-04-08T07:52:53.429Z,67.55
2023-04-08T07:55:21.616Z,68.01
2023-04-08T07:57:49.566Z,67.96
2023-04-08T08:00:21.849Z,69.36
2023-04-08T08:02:50.047Z,68.27
2023-04-08T08:05:18.098Z,69.68
2023-04-08T08:07:46.212Z,67.94
2023-04-08T08:10:14.295Z,68.27
2023-04-08T08:12:42.258Z,69.59
2023-04-08T08:15:11.897Z,68.35
2023-04-08T08:17:41.465Z,68.17
2023-04-08T08:20:10.511Z,68.20
2023-04-08T08:22:47.238Z,65.68
2023-04-08T08:25:26.087Z,65.25
2023-04-08T08:27:55.481Z,64.68
2023-04-08T08:30:23.544Z,66.68
2023-04-08T08:32:53.218Z,61.45
2023-04-08T08:35:21.334Z,64.98
2023-04-08T08:37:49.446Z,62.77
2023-04-08T08:40:17.656Z,62.02
2023-04-08T08:42:52.141Z,62.99
2023-04-08T08:45:21.215Z,61.17
2023-04-08T08:47:51.217Z,62.46
2023-04-08T08:50:21.177Z,58.16
2023-04-08T08:52:52.927Z,61.05
2023-04-08T08:55:34.938Z,60.09
2023-04-08T08:58:04.754Z,61.51
2023-04-08T09:00:34.771Z,60.39
2023-04-08T09:03:19.724Z,58.76
2023-04-08T09:05:54.847Z,60.24
2023-04-08T09:08:30.290Z,58.87
2023-04-08T09:11:12.652Z,60.40
2023-04-08T09:13:40.920Z,59.61
2023-04-08T09:16:10.314Z,59.60
2023-04-08T09:18:40.018Z,61.18
2023-04-08T09:21:09.448Z,60.26
2023-04-08T09:23:44.865Z,58.45
2023-04-08T09:26:14.240Z,58.83
2023-04-08T09:28:43.493Z,63.31
2023-04-08T09:31:22.118Z,58.76
2023-04-08T09:33:51.616Z,61.96
2023-04-08T09:36:21.202Z,58.28
2023-04-08T09:38:49.236Z,56.84
2023-04-08T09:41:18.690Z,56.94
2023-04-08T09:43:50.936Z,56.59
2023-04-08T09:46:25.875Z,57.58
2023-04-08T09:49:02.732Z,57.08
2023-04-08T09:51:37.970Z,58.01
2023-04-08T09:54:14.051Z,55.99
2023-04-08T09:56:49.211Z,56.43
2023-04-08T09:59:21.816Z,55.95
2023-04-08T10:01:55.216Z,56.63
2023-04-08T10:04:27.013Z,54.23
2023-04-08T10:07:02.232Z,53.44
2023-04-08T10:09:31.115Z,55.73
2023-04-08T10:11:59.408Z,56.74
2023-04-08T10:14:28.856Z,55.27
2023-04-08T10:17:28.637Z,56.29
2023-04-08T10:19:59.614Z,57.60
2023-04-08T10:22:51.278Z,56.88
2023-04-08T10:25:33.303Z,57.14
2023-04-08T10:28:05.029Z,58.82
2023-04-08T10:30:42.241Z,56.35
2023-04-08T10:33:15.227Z,55.43
2023-04-08T10:35:46.592Z,57.17
2023-04-08T10:38:17.235Z,56.23
2023-04-08T10:40:46.541Z,55.27
2023-04-08T10:43:16.208Z,53.26
2023-04-08T10:45:48.505Z,54.77
2023-04-08T10:48:19.594Z,54.77
2023-04-08T10:50:55.213Z,56.02
2023-04-08T10:53:33.966Z,55.73
2023-04-08T10:56:06.581Z,54.43
2023-04-08T10:58:34.895Z,56.63
2023-04-08T11:01:07.915Z,56.34
2023-04-08T11:03:37.663Z,55.15
2023-04-08T11:06:07.668Z,54.78
2023-04-08T11:08:38.697Z,56.59
2023-04-08T11:11:09.563Z,53.03
2023-04-08T11:13:37.718Z,52.49
2023-04-08T11:16:17.111Z,54.56
2023-04-08T11:18:48.102Z,53.88
2023-04-08T11:21:17.276Z,53.35
2023-04-08T11:23:47.089Z,50.81
2023-04-08T11:26:16.405Z,50.74
2023-04-08T11:28:45.576Z,50.93
2023-04-08T11:31:14.882Z,50.55
2023-04-08T11:33:47.010Z,52.33
2023-04-08T11:36:15.689Z,53.66
2023-04-08T11:38:44.259Z,53.49
2023-04-08T11:41:13.581Z,52.92
2023-04-08T11:43:52.084Z,51.93
2023-04-08T11:46:20.664Z,51.71
2023-04-08T11:49:08.416Z,53.58
2023-04-08T11:51:37.968Z,52.34
2023-04-08T11:54:07.519Z,51.74
2023-04-08T11:56:48.362Z,51.89
2023-04-08T11:59:16.382Z,49.74
2023-04-08T12:01:44.653Z,52.42
2023-04-08T12:04:12.863Z,50.63
2023-04-08T12:06:43.894Z,52.95
2023-04-08T12:09:11.978Z,52.24
2023-04-08T12:11:40.134Z,53.52
2023-04-08T12:14:09.803Z,53.32
2023-04-08T12:16:37.999Z,53.77
2023-04-08T12:19:06.435Z,53.09
2023-04-08T12:21:35.121Z,54.87
2023-04-08T12:24:03.676Z,53.95
2023-04-08T12:26:31.735Z,52.76
2023-04-08T12:28:59.749Z,52.47
2023-04-08T12:31:29.712Z,53.96
2023-04-08T12:33:57.700Z,51.77
2023-04-08T12:36:27.208Z,53.44
2023-04-08T12:38:55.591Z,53.62
2023-04-08T12:41:24.259Z,52.79
2023-04-08T12:43:52.236Z,53.51
2023-04-08T12:46:20.187Z,52.36
2023-04-08T12:48:59.934Z,53.51
2023-04-08T12:51:32.407Z,52.85
2023-04-08T12:54:01.470Z,53.67
2023-04-08T12:56:29.409Z,52.29
2023-04-08T12:58:58.170Z,53.53
2023-04-08T13:01:26.642Z,52.85
2023-04-08T13:03:57.173Z,52.29
2023-04-08T13:06:25.444Z,51.73
2023-04-08T13:08:53.676Z,52.03
2023-04-08T13:11:22.568Z,51.52
2023-04-08T13:13:50.611Z,51.72
2023-04-08T13:16:19.025Z,52.60
2023-04-08T13:18:47.175Z,52.71
2023-04-08T13:21:16.749Z,53.50
2023-04-08T13:23:44.728Z,54.97
2023-04-08T13:26:12.761Z,55.18
2023-04-08T13:28:56.065Z,54.20
2023-04-08T13:31:26.397Z,55.50
2023-04-08T13:33:57.655Z,54.70
2023-04-08T13:36:28.849Z,56.07
2023-04-08T13:38:57.650Z,58.53
2023-04-08T13:41:28.309Z,58.78
2023-04-08T13:43:56.934Z,59.75
2023-04-08T13:46:25.178Z,60.18
2023-04-08T13:48:53.846Z,62.37
2023-04-08T13:51:22.086Z,64.58
2023-04-08T13:53:51.407Z,65.63
2023-04-08T13:56:19.593Z,66.69
2023-04-08T13:58:55.214Z,69.14
2023-04-08T14:01:25.056Z,71.80
2023-04-08T14:03:53.402Z,72.84
2023-04-08T14:06:21.859Z,75.13
2023-04-08T14:08:51.619Z,76.96
2023-04-08T14:11:20.030Z,77.32
2023-04-08T14:13:48.343Z,79.09
2023-04-08T14:16:16.812Z,79.90
2023-04-08T14:18:45.205Z,84.18
2023-04-08T14:21:15.040Z,85.91
2023-04-08T14:23:43.035Z,86.45
2023-04-08T14:26:13.162Z,84.85
2023-04-08T14:28:41.655Z,85.90
2023-04-08T14:31:09.753Z,88.79
2023-04-08T14:33:39.169Z,89.88
2023-04-08T14:36:07.738Z,90.06
2023-04-08T14:38:35.794Z,89.27
2023-04-08T14:41:04.576Z,88.00
2023-04-08T14:43:34.041Z,87.08
2023-04-08T14:46:02.495Z,87.40
2023-04-08T14:48:31.478Z,87.11
2023-04-08T14:51:00.168Z,87.22
2023-04-08T14:53:28.476Z,86.86
2023-04-08T14:55:56.628Z,86.18
2023-04-08T14:58:24.692Z,86.53
2023-04-08T15:00:55.357Z,86.14
2023-04-08T15:03:23.536Z,86.60
2023-04-08T15:05:51.617Z,86.88
2023-04-08T15:08:19.543Z,84.46
2023-04-08T15:10:47.424Z,85.89
2023-04-08T15:13:15.472Z,85.72
2023-04-08T15:15:43.401Z,85.82
2023-04-08T15:18:13.058Z,87.00
2023-04-08T15:20:41.587Z,87.16
2023-04-08T15:23:10.103Z,88.89
2023-04-08T15:25:38.288Z,87.03
2023-04-08T15:28:06.350Z,87.11
2023-04-08T15:30:35.897Z,87.06
2023-04-08T15:33:07.130Z,88.87
2023-04-08T15:35:39.316Z,86.42
2023-04-08T15:38:07.811Z,86.60
2023-04-08T15:40:36.146Z,84.95
2023-04-08T15:43:05.008Z,83.96
2023-04-08T15:45:33.596Z,83.18
2023-04-08T15:48:01.683Z,83.00
2023-04-08T15:50:30.901Z,85.08
2023-04-08T15:53:00.489Z,85.02
2023-04-08T15:55:28.497Z,85.06
2023-04-08T15:57:57.264Z,84.44
2023-04-08T16:00:26.095Z,85.15
2023-04-08T16:02:54.332Z,87.42
2023-04-08T16:05:22.512Z,88.09
2023-04-08T16:07:50.722Z,88.60
2023-04-08T16:10:20.559Z,90.13
2023-04-08T16:12:49.342Z,88.97
2023-04-08T16:15:17.755Z,90.11
2023-04-08T16:17:52.076Z,89.78
2023-04-08T16:20:20.677Z,90.70
2023-04-08T16:22:50.460Z,89.76
2023-04-08T16:25:20.037Z,91.63
2023-04-08T16:27:49.083Z,92.03
2023-04-08T16:30:17.514Z,94.37
2023-04-08T16:32:46.100Z,92.23
2023-04-08T16:35:14.338Z,90.28
2023-04-08T16:37:42.420Z,87.90
2023-04-08T16:40:11.569Z,90.86
2023-04-08T16:42:41.918Z,89.72
2023-04-08T16:45:11.126Z,89.52
2023-04-08T16:47:41.912Z,87.50
2023-04-08T16:50:10.979Z,86.88
2023-04-08T16:52:39.170Z,87.90
2023-04-08T16:55:08.216Z,88.71
2023-04-08T16:57:36.548Z,89.58
2023-04-08T17:00:07.687Z,90.02
2023-04-08T17:02:36.056Z,90.35
2023-04-08T17:05:04.350Z,90.44
2023-04-08T17:07:32.812Z,88.87
2023-04-08T17:10:01.064Z,89.37
2023-04-08T17:12:29.205Z,88.99
2023-04-08T17:14:57.154Z,88.37
2023-04-08T17:17:26.476Z,87.79
2023-04-08T17:19:54.843Z,88.24
2023-04-08T17:22:22.738Z,87.78
2023-04-08T17:24:50.868Z,87.12
2023-04-08T17:27:18.882Z,88.05
2023-04-08T17:29:46.855Z,87.32
2023-04-08T17:32:14.772Z,87.26
2023-04-08T17:34:44.187Z,86.70
2023-04-08T17:37:12.518Z,86.82
2023-04-08T17:39:41.179Z,87.42
2023-04-08T17:42:09.362Z,87.24
2023-04-08T17:44:37.807Z,87.21
2023-04-08T17:47:06.045Z,86.70
2023-04-08T17:49:34.296Z,86.62
2023-04-08T17:52:03.586Z,87.05
2023-04-08T17:54:34.465Z,86.19
2023-04-08T17:57:03.054Z,86.71
2023-04-08T17:59:31.082Z,88.39
2023-04-08T18:01:59.079Z,88.05
2023-04-08T18:04:27.759Z,89.54
2023-04-08T18:06:57.317Z,89.41
2023-04-08T18:09:26.580Z,88.06
2023-04-08T18:11:54.466Z,87.41
2023-04-08T18:14:22.354Z,87.01
2023-04-08T18:16:50.402Z,87.35
2023-04-08T18:19:18.850Z,87.79
2023-04-08T18:21:46.882Z,87.74
2023-04-08T18:24:14.788Z,87.14
2023-04-08T18:26:45.448Z,87.03
2023-04-08T18:29:18.145Z,87.61
2023-04-08T18:31:46.612Z,93.34
2023-04-08T18:34:14.515Z,92.81
2023-04-08T18:36:42.571Z,91.81
2023-04-08T18:39:10.831Z,92.66
2023-04-08T18:41:39.483Z,93.02
2023-04-08T18:44:09.012Z,96.29
2023-04-08T18:46:37.123Z,97.38
2023-04-08T18:49:05.269Z,99.45
2023-04-08T18:51:33.546Z,99.45
2023-04-08T18:54:02.385Z,98.31
2023-04-08T18:56:30.693Z,97.87
2023-04-08T18:58:58.806Z,97.52
2023-04-08T19:01:29.181Z,97.59
2023-04-08T19:03:57.134Z,97.42
2023-04-08T19:06:26.096Z,97.69
2023-04-08T19:08:54.185Z,96.38
2023-04-08T19:11:26.577Z,95.34
2023-04-08T19:13:54.877Z,95.32
2023-04-08T19:16:22.859Z,94.80
2023-04-08T19:18:52.878Z,94.59
2023-04-08T19:21:21.854Z,93.23
2023-04-08T19:23:50.747Z,92.79
2023-04-08T19:26:19.080Z,94.12
2023-04-08T19:28:47.313Z,93.04
2023-04-08T19:31:18.861Z,92.07
2023-04-08T19:33:46.916Z,91.08
2023-04-08T19:36:16.384Z,91.38
2023-04-08T19:38:44.274Z,91.40
2023-04-08T19:41:12.246Z,91.04
2023-04-08T19:43:40.285Z,91.94
2023-04-08T19:46:08.959Z,92.47
2023-04-08T19:48:37.043Z,91.83
2023-04-08T19:51:05.238Z,94.63
2023-04-08T19:53:34.578Z,94.75
2023-04-08T19:56:02.957Z,93.50
2023-04-08T19:58:31.251Z,93.03
2023-04-08T20:00:59.275Z,94.01
2023-04-08T20:03:27.430Z,93.92
2023-04-08T20:05:55.508Z,93.65
2023-04-08T20:08:23.474Z,97.11
2023-04-08T20:10:53.964Z,93.19
2023-04-08T20:13:21.943Z,92.37
2023-04-08T20:15:49.865Z,92.90
2023-04-08T20:18:17.812Z,91.55
2023-04-08T20:20:46.889Z,90.97
2023-04-08T20:23:14.790Z,91.43
2023-04-08T20:25:42.691Z,91.75
2023-04-08T20:28:12.086Z,92.87
2023-04-08T20:30:40.860Z,92.70
2023-04-08T20:33:08.777Z,93.40
2023-04-08T20:35:37.472Z,91.63
2023-04-08T20:38:05.704Z,92.59
2023-04-08T20:40:33.638Z,90.94
2023-04-08T20:43:01.493Z,90.25
2023-04-08T20:45:30.803Z,90.78
2023-04-08T20:47:58.783Z,90.82
2023-04-08T20:50:28.539Z,91.02
2023-04-08T20:52:56.449Z,91.09
2023-04-08T20:55:24.320Z,90.72
2023-04-08T20:57:52.206Z,90.49
2023-04-08T21:00:20.352Z,89.55
2023-04-08T21:02:50.415Z,90.44
2023-04-08T21:05:24.366Z,90.07
2023-04-08T21:08:03.516Z,89.65
2023-04-08T21:10:36.393Z,91.38
2023-04-08T21:13:09.431Z,91.85
2023-04-08T21:15:38.354Z,91.65
2023-04-08T21:18:14.036Z,92.11
2023-04-08T21:20:45.693Z,93.18
2023-04-08T21:23:18.678Z,94.76
2023-04-08T21:25:51.828Z,95.94
2023-04-08T21:28:25.156Z,97.47
2023-04-08T21:30:58.781Z,98.83
2023-04-08T21:33:33.125Z,99.07
2023-04-08T21:36:06.380Z,99.98
2023-04-08T21:38:39.905Z,100.00
2023-04-08T21:41:10.697Z,100.00
2023-04-08T21:43:41.024Z,100.00
2023-04-08T21:46:13.686Z,100.00
2023-04-08T21:48:48.320Z,100.00
2023-04-08T21:51:21.589Z,100.00
2023-04-08T21:53:55.780Z,100.00
2023-04-08T21:56:24.602Z,100.00
2023-04-08T21:58:52.808Z,100.00
2023-04-08T22:01:20.999Z,100.00
2023-04-08T22:03:52.433Z,100.00
2023-04-08T22:06:31.502Z,100.00
2023-04-08T22:09:00.733Z,100.00
2023-04-08T22:11:28.683Z,100.00
2023-04-08T22:13:56.681Z,100.00
2023-04-08T22:16:24.617Z,100.00
2023-04-08T22:18:54.231Z,100.00
2023-04-08T22:21:22.799Z,100.00
2023-04-08T22:23:50.744Z,100.00
2023-04-08T22:26:18.675Z,100.00
2023-04-08T22:28:46.585Z,100.00
2023-04-08T22:31:14.517Z,100.00
2023-04-08T22:33:42.547Z,100.00
2023-04-08T22:36:11.875Z,100.00
2023-04-08T22:38:39.856Z,100.00
2023-04-08T22:41:07.767Z,100.00
2023-04-08T22:43:35.692Z,98.87
2023-04-08T22:46:03.621Z,98.16
2023-04-08T22:48:31.584Z,100.00
2023-04-08T22:50:59.481Z,100.00
2023-04-08T22:53:28.810Z,99.40
2023-04-08T22:55:56.714Z,100.00
2023-04-08T22:58:24.616Z,100.00
2023-04-08T23:00:52.535Z,99.98
2023-04-08T23:03:20.493Z,100.00
2023-04-08T23:05:48.394Z,99.39
2023-04-08T23:08:17.568Z,98.65
2023-04-08T23:10:46.870Z,99.01
2023-04-08T23:13:15.149Z,100.00
2023-04-08T23:15:43.649Z,99.36
2023-04-08T23:18:11.609Z,100.00
2023-04-08T23:20:39.509Z,100.00
2023-04-08T23:23:07.418Z,100.00
2023-04-08T23:25:36.578Z,100.00
2023-04-08T23:28:06.238Z,100.00
2023-04-08T23:30:34.182Z,100.00
2023-04-08T23:33:02.082Z,100.00
2023-04-08T23:35:30.163Z,100.00
2023-04-08T23:37:58.110Z,100.00
2023-04-08T23:40:26.080Z,100.00
2023-04-08T23:42:54.068Z,100.00
2023-04-08T23:45:23.474Z,100.00
2023-04-08T23:47:51.753Z,100.00
2023-04-08T23:50:20.345Z,100.00
2023-04-08T23:52:48.207Z,100.00
2023-04-08T23:55:16.214Z,100.00
2023-04-08T23:57:44.679Z,100.00
